createdAt,value
2017-08-21T00:00:56.974Z,3.50
2017-08-21T00:03:24.451Z,4.10
2017-08-21T00:05:51.926Z,3.77
2017-08-21T00:08:20.181Z,3.50
2017-08-21T00:10:47.645Z,3.50
2017-08-21T00:13:15.112Z,3.67
2017-08-21T00:15:42.586Z,3.57
2017-08-21T00:18:10.038Z,3.23
2017-08-21T00:20:37.509Z,3.80
2017-08-21T00:23:05.166Z,4.37
2017-08-21T00:25:32.650Z,3.67
2017-08-21T00:28:00.116Z,3.20
2017-08-21T00:30:27.581Z,4.07
2017-08-21T00:32:55.088Z,5.13
2017-08-21T00:35:22.537Z,4.20
2017-08-21T00:37:50.002Z,3.60
2017-08-21T00:40:17.471Z,3.80
2017-08-21T00:42:44.945Z,4.13
2017-08-21T00:45:12.417Z,4.00
2017-08-21T00:47:39.880Z,4.00
2017-08-21T00:50:07.361Z,3.80
2017-08-21T00:52:34.837Z,4.43
2017-08-21T00:55:02.323Z,4.27
2017-08-21T00:57:29.798Z,4.20
2017-08-21T00:59:57.265Z,3.73
2017-08-21T01:02:24.740Z,3.50
2017-08-21T01:04:52.977Z,3.90
2017-08-21T01:07:20.453Z,3.60
2017-08-21T01:09:47.949Z,4.70
2017-08-21T01:12:16.184Z,4.07
2017-08-21T01:14:43.668Z,4.40
2017-08-21T01:17:11.917Z,4.13
2017-08-21T01:19:39.391Z,3.90
2017-08-21T01:22:06.858Z,4.23
2017-08-21T01:24:35.093Z,4.90
2017-08-21T01:27:02.569Z,4.00
2017-08-21T01:29:30.105Z,3.73
2017-08-21T01:31:57.577Z,4.03
2017-08-21T01:34:25.038Z,3.93
2017-08-21T01:36:52.504Z,3.90
2017-08-21T01:39:21.002Z,4.67
2017-08-21T01:41:49.246Z,4.20
2017-08-21T01:44:16.720Z,4.50
2017-08-21T01:46:44.182Z,4.33
2017-08-21T01:49:11.650Z,4.10
2017-08-21T01:51:39.250Z,4.53
2017-08-21T01:54:06.722Z,5.30
2017-08-21T01:56:34.198Z,4.30
2017-08-21T01:59:01.661Z,3.90
2017-08-21T02:01:29.131Z,3.93
2017-08-21T02:03:57.357Z,4.53
2017-08-21T02:06:24.825Z,3.67
2017-08-21T02:08:52.318Z,4.27
2017-08-21T02:11:19.811Z,4.27
2017-08-21T02:13:47.261Z,4.57
2017-08-21T02:16:15.352Z,4.40
2017-08-21T02:18:42.832Z,4.40
2017-08-21T02:21:10.415Z,4.37
2017-08-21T02:23:38.668Z,4.70
2017-08-21T02:26:06.122Z,4.70
2017-08-21T02:28:33.592Z,4.60
2017-08-21T02:31:01.054Z,4.20
2017-08-21T02:33:28.538Z,4.40
2017-08-21T02:35:56.770Z,3.87
2017-08-21T02:38:36.317Z,4.27
2017-08-21T02:41:03.779Z,4.67
2017-08-21T02:43:31.257Z,4.63
2017-08-21T02:45:59.646Z,4.60
2017-08-21T02:48:27.113Z,4.47
2017-08-21T02:50:54.595Z,4.57
2017-08-21T02:53:22.075Z,5.60
2017-08-21T02:55:49.541Z,4.30
2017-08-21T02:58:17.035Z,4.50
2017-08-21T03:00:49.603Z,5.13
2017-08-21T03:03:17.069Z,4.60
2017-08-21T03:05:44.545Z,4.70
2017-08-21T03:08:12.022Z,4.37
2017-08-21T03:10:39.547Z,5.97
2017-08-21T03:13:07.102Z,4.73
2017-08-21T03:15:34.571Z,4.40
2017-08-21T03:18:02.877Z,5.20
2017-08-21T03:20:30.366Z,5.10
2017-08-21T03:22:58.584Z,5.40
2017-08-21T03:25:26.066Z,4.77
2017-08-21T03:27:53.536Z,4.73
2017-08-21T03:30:21.012Z,5.20
2017-08-21T03:32:49.261Z,6.00
2017-08-21T03:35:17.378Z,5.30
2017-08-21T03:37:44.854Z,5.60
2017-08-21T03:40:12.322Z,5.20
2017-08-21T03:42:39.805Z,5.37
2017-08-21T03:45:07.269Z,4.80
2017-08-21T03:47:34.741Z,5.53
2017-08-21T03:50:02.968Z,5.17
2017-08-21T03:52:30.432Z,5.83
2017-08-21T03:54:57.904Z,4.90
2017-08-21T03:57:25.397Z,5.00
2017-08-21T03:59:52.886Z,5.10
2017-08-21T04:02:20.418Z,4.93
2017-08-21T04:04:48.641Z,5.43
2017-08-21T04:07:16.118Z,5.90
2017-08-21T04:09:43.586Z,5.37
2017-08-21T04:12:11.082Z,5.87
2017-08-21T04:14:38.614Z,5.37
2017-08-21T04:17:06.857Z,5.70
2017-08-21T04:19:34.341Z,5.40
2017-08-21T04:22:02.579Z,5.57
2017-08-21T04:24:30.055Z,5.50
2017-08-21T04:26:57.553Z,4.60
2017-08-21T04:29:25.031Z,5.73
2017-08-21T04:31:52.511Z,6.27
2017-08-21T04:34:20.053Z,5.67
2017-08-21T04:36:47.519Z,5.63
2017-08-21T04:39:14.990Z,5.63
2017-08-21T04:41:42.451Z,5.20
2017-08-21T04:44:09.917Z,5.37
2017-08-21T04:46:38.145Z,5.37
2017-08-21T04:49:05.611Z,6.20
2017-08-21T04:51:33.103Z,6.00
2017-08-21T04:54:00.557Z,5.97
2017-08-21T04:56:28.033Z,5.20
2017-08-21T04:58:56.319Z,5.77
2017-08-21T05:01:23.802Z,6.10
2017-08-21T05:03:51.409Z,6.17
2017-08-21T05:06:18.873Z,6.20
2017-08-21T05:08:47.150Z,5.40
2017-08-21T05:11:15.497Z,5.20
2017-08-21T05:13:42.983Z,5.33
2017-08-21T05:16:11.214Z,6.30
2017-08-21T05:18:38.687Z,5.10
2017-08-21T05:21:06.150Z,5.47
2017-08-21T05:23:33.654Z,6.20
2017-08-21T05:26:01.134Z,6.30
2017-08-21T05:28:28.593Z,6.03
2017-08-21T05:30:56.081Z,6.00
2017-08-21T05:33:23.564Z,6.07
2017-08-21T05:35:51.833Z,6.90
2017-08-21T05:38:20.200Z,7.10
2017-08-21T05:40:47.679Z,6.87
2017-08-21T05:43:15.913Z,6.73
2017-08-21T05:45:43.501Z,6.50
2017-08-21T05:48:11.766Z,6.63
2017-08-21T05:50:39.239Z,6.07
2017-08-21T05:53:07.481Z,7.90
2017-08-21T05:55:35.097Z,7.00
2017-08-21T05:58:02.591Z,7.37
2017-08-21T06:00:30.076Z,8.10
2017-08-21T06:02:57.542Z,8.30
2017-08-21T06:05:25.772Z,8.00
2017-08-21T06:07:53.276Z,7.17
2017-08-21T06:10:21.701Z,8.33
2017-08-21T06:12:49.156Z,7.93
2017-08-21T06:15:16.629Z,6.90
2017-08-21T06:17:44.177Z,8.73
2017-08-21T06:20:11.689Z,9.17
2017-08-21T06:22:39.957Z,8.40
2017-08-21T06:25:08.184Z,8.77
2017-08-21T06:27:35.644Z,8.97
2017-08-21T06:32:37.139Z,9.47
2017-08-21T06:35:04.616Z,9.23
2017-08-21T06:37:32.918Z,9.50
2017-08-21T06:40:00.544Z,9.00
2017-08-21T06:42:28.772Z,9.23
2017-08-21T06:44:56.269Z,9.50
2017-08-21T06:47:24.544Z,10.70
2017-08-21T06:49:52.034Z,9.70
2017-08-21T06:52:20.097Z,9.57
2017-08-21T06:54:48.336Z,10.03
2017-08-21T06:57:15.822Z,9.23
2017-08-21T06:59:44.038Z,10.40
2017-08-21T07:02:11.538Z,9.63
2017-08-21T07:04:39.156Z,10.27
2017-08-21T07:07:06.723Z,10.00
2017-08-21T07:09:34.189Z,11.30
2017-08-21T07:12:01.673Z,10.07
2017-08-21T07:14:29.919Z,10.30
2017-08-21T07:16:57.573Z,9.60
2017-08-21T07:19:25.060Z,11.20
2017-08-21T07:21:52.525Z,10.13
2017-08-21T07:24:20.753Z,10.30
2017-08-21T07:26:48.237Z,10.93
2017-08-21T07:29:15.781Z,10.20
2017-08-21T07:31:43.273Z,9.77
2017-08-21T07:34:10.742Z,8.90
2017-08-21T07:36:38.985Z,10.00
2017-08-21T07:39:06.570Z,10.17
2017-08-21T07:41:34.797Z,8.80
2017-08-21T07:44:02.321Z,11.10
2017-08-21T07:46:29.790Z,9.87
2017-08-21T07:48:57.269Z,8.97
2017-08-21T07:51:24.742Z,7.67
2017-08-21T07:53:52.205Z,7.27
2017-08-21T07:56:19.706Z,6.40
2017-08-21T07:58:47.185Z,7.90
2017-08-21T08:01:14.654Z,6.80
2017-08-21T08:03:42.994Z,5.63
2017-08-21T08:06:10.514Z,5.23
2017-08-21T08:08:38.050Z,4.33
2017-08-21T08:11:05.534Z,4.70
2017-08-21T08:13:33.008Z,5.00
2017-08-21T08:16:01.226Z,4.23
2017-08-21T08:18:28.796Z,3.60
2017-08-21T08:20:56.249Z,3.50
2017-08-21T08:23:23.748Z,4.13
2017-08-21T08:25:51.985Z,4.53
2017-08-21T08:28:19.453Z,4.33
2017-08-21T08:30:46.941Z,4.47
2017-08-21T08:33:15.165Z,3.67
2017-08-21T08:35:42.640Z,3.50
2017-08-21T08:38:10.104Z,3.20
2017-08-21T08:40:37.568Z,2.27
2017-08-21T08:43:05.040Z,2.77
2017-08-21T08:45:33.277Z,2.67
2017-08-21T08:48:00.740Z,3.67
2017-08-21T08:50:28.198Z,2.63
2017-08-21T08:52:55.681Z,2.57
2017-08-21T08:55:24.001Z,2.80
2017-08-21T08:57:51.488Z,3.20
2017-08-21T09:00:18.965Z,2.50
2017-08-21T09:02:46.421Z,2.80
2017-08-21T09:05:13.982Z,2.47
2017-08-21T09:07:41.707Z,2.13
2017-08-21T09:10:09.221Z,2.50
2017-08-21T09:12:36.688Z,2.40
2017-08-21T09:15:04.221Z,2.67
2017-08-21T09:17:31.674Z,2.20
2017-08-21T09:19:59.157Z,2.60
2017-08-21T09:22:26.614Z,2.97
2017-08-21T09:24:54.105Z,2.27
2017-08-21T09:27:21.597Z,2.37
2017-08-21T09:29:49.065Z,2.20
2017-08-21T09:32:17.325Z,2.23
2017-08-21T09:34:44.780Z,2.63
2017-08-21T09:37:12.259Z,2.13
2017-08-21T09:39:40.630Z,2.17
2017-08-21T09:42:08.903Z,2.80
2017-08-21T09:44:37.141Z,2.30
2017-08-21T09:47:04.611Z,2.27
2017-08-21T09:49:32.090Z,2.60
2017-08-21T09:51:59.554Z,2.60
2017-08-21T09:54:27.021Z,2.47
2017-08-21T09:56:54.477Z,2.50
2017-08-21T09:59:21.953Z,2.20
2017-08-21T10:01:49.436Z,2.73
2017-08-21T10:04:16.894Z,2.80
2017-08-21T10:06:44.365Z,2.33
2017-08-21T10:09:11.897Z,2.20
2017-08-21T10:11:39.352Z,2.37
2017-08-21T10:14:35.521Z,2.57
2017-08-21T10:17:02.994Z,2.70
2017-08-21T10:19:30.460Z,2.30
2017-08-21T10:21:58.061Z,2.40
2017-08-21T10:24:25.542Z,2.50
2017-08-21T10:26:53.007Z,2.57
2017-08-21T10:29:20.488Z,2.50
2017-08-21T10:31:47.953Z,2.30
2017-08-21T10:34:15.410Z,2.40
2017-08-21T10:36:42.890Z,2.37
2017-08-21T10:39:10.437Z,2.10
2017-08-21T10:41:37.914Z,2.50
2017-08-21T10:44:05.377Z,3.13
2017-08-21T10:46:32.850Z,3.50
2017-08-21T10:49:00.393Z,2.67
2017-08-21T10:51:27.879Z,2.43
2017-08-21T10:53:55.355Z,2.90
2017-08-21T10:56:22.940Z,2.90
2017-08-21T10:58:50.411Z,2.60
2017-08-21T11:01:17.868Z,2.73
2017-08-21T11:03:45.349Z,3.07
2017-08-21T11:06:12.889Z,2.83
2017-08-21T11:08:40.369Z,2.23
2017-08-21T11:11:07.848Z,2.20
2017-08-21T11:13:35.317Z,2.40
2017-08-21T11:16:02.769Z,2.80
2017-08-21T11:18:30.384Z,2.63
2017-08-21T11:20:57.854Z,2.40
2017-08-21T11:23:25.330Z,2.33
2017-08-21T11:25:52.798Z,2.30
2017-08-21T11:28:20.277Z,2.27
2017-08-21T11:30:47.760Z,2.30
2017-08-21T11:33:15.350Z,2.03
2017-08-21T11:35:42.889Z,2.33
2017-08-21T11:38:10.353Z,2.33
2017-08-21T11:40:37.846Z,2.40
2017-08-21T11:43:05.302Z,1.93
2017-08-21T11:45:32.797Z,1.87
2017-08-21T11:50:34.233Z,2.07
2017-08-21T11:53:01.701Z,2.40
2017-08-21T11:55:29.180Z,2.03
2017-08-21T11:57:56.646Z,2.37
2017-08-21T12:00:24.109Z,2.20
2017-08-21T12:02:51.561Z,1.73
2017-08-21T12:05:19.047Z,2.73
2017-08-21T12:07:46.514Z,2.27
2017-08-21T12:10:14.036Z,2.10
2017-08-21T12:12:41.545Z,2.10
2017-08-21T12:15:09.030Z,2.20
2017-08-21T12:17:36.507Z,1.80
2017-08-21T12:20:04.000Z,2.00
2017-08-21T12:22:31.483Z,2.20
2017-08-21T12:24:58.946Z,2.40
2017-08-21T12:27:26.488Z,2.10
2017-08-21T12:29:54.163Z,1.70
2017-08-21T12:32:21.662Z,2.40
2017-08-21T12:34:49.148Z,2.30
2017-08-21T12:37:17.368Z,2.17
2017-08-21T12:39:44.838Z,2.20
2017-08-21T12:42:12.341Z,2.23
2017-08-21T12:44:39.803Z,2.27
2017-08-21T12:47:07.318Z,2.40
2017-08-21T12:49:34.803Z,2.53
2017-08-21T12:52:02.385Z,2.97
2017-08-21T12:54:29.842Z,2.50
2017-08-21T12:56:57.443Z,2.60
2017-08-21T12:59:24.990Z,2.83
2017-08-21T13:01:52.475Z,2.50
2017-08-21T13:04:20.035Z,2.70
2017-08-21T13:06:47.518Z,2.00
2017-08-21T13:09:15.158Z,2.50
2017-08-21T13:11:42.709Z,2.40
2017-08-21T13:14:10.224Z,2.50
2017-08-21T13:16:37.712Z,2.30
2017-08-21T13:19:05.171Z,2.17
2017-08-21T13:21:32.672Z,2.67
2017-08-21T13:24:00.153Z,2.70
2017-08-21T13:26:27.675Z,2.70
2017-08-21T13:28:55.282Z,2.37
2017-08-21T13:31:23.457Z,2.30
2017-08-21T13:33:51.004Z,2.23
2017-08-21T13:36:18.527Z,2.60
2017-08-21T13:38:46.355Z,2.43
2017-08-21T13:41:13.833Z,2.70
2017-08-21T13:43:41.326Z,2.37
2017-08-21T13:46:08.790Z,2.70
2017-08-21T13:48:36.317Z,2.43
2017-08-21T13:51:04.095Z,2.40
2017-08-21T13:53:31.570Z,2.40
2017-08-21T13:55:59.057Z,2.17
2017-08-21T13:58:26.664Z,3.30
2017-08-21T14:00:57.893Z,2.60
2017-08-21T14:03:25.365Z,2.57
2017-08-21T14:05:52.970Z,2.47
2017-08-21T14:08:20.444Z,2.90
2017-08-21T14:10:47.926Z,2.40
2017-08-21T14:13:15.405Z,2.30
2017-08-21T14:15:42.875Z,2.50
2017-08-21T14:18:10.337Z,2.70
2017-08-21T14:20:37.807Z,2.40
2017-08-21T14:23:05.287Z,2.10
2017-08-21T14:25:32.777Z,2.73
2017-08-21T14:28:00.246Z,2.20
2017-08-21T14:30:28.498Z,2.20
2017-08-21T14:32:55.964Z,2.37
2017-08-21T14:35:23.480Z,2.57
2017-08-21T14:37:50.929Z,2.20
2017-08-21T14:40:18.388Z,2.10
2017-08-21T14:42:45.861Z,2.40
2017-08-21T14:45:13.336Z,2.10
2017-08-21T14:47:40.829Z,2.93
2017-08-21T14:50:08.289Z,2.50
2017-08-21T14:52:35.774Z,2.20
2017-08-21T14:55:03.245Z,2.20
2017-08-21T14:57:30.756Z,2.47
2017-08-21T14:59:58.265Z,1.73
2017-08-21T15:02:25.736Z,2.37
2017-08-21T15:04:53.218Z,1.93
2017-08-21T15:07:20.784Z,2.33
2017-08-21T15:09:48.308Z,2.20
2017-08-21T15:12:16.357Z,2.10
2017-08-21T15:14:43.857Z,2.00
2017-08-21T15:17:11.317Z,2.47
2017-08-21T15:19:38.839Z,1.87
2017-08-21T15:22:07.030Z,2.17
2017-08-21T15:24:34.505Z,2.33
2017-08-21T15:27:01.973Z,2.20
2017-08-21T15:29:29.491Z,2.50
2017-08-21T15:31:56.968Z,2.87
2017-08-21T15:34:24.423Z,2.40
2017-08-21T15:36:51.899Z,2.23
2017-08-21T15:39:19.364Z,2.00
2017-08-21T15:41:46.857Z,2.10
2017-08-21T15:44:14.312Z,2.33
2017-08-21T15:46:41.797Z,3.00
2017-08-21T15:49:09.278Z,2.63
2017-08-21T15:51:36.758Z,2.10
2017-08-21T15:54:04.240Z,2.40
2017-08-21T15:56:31.705Z,2.30
2017-08-21T15:58:59.253Z,2.80
2017-08-21T16:01:26.838Z,2.60
2017-08-21T16:03:54.313Z,1.97
2017-08-21T16:06:21.781Z,2.27
2017-08-21T16:08:49.253Z,2.33
2017-08-21T16:11:16.730Z,1.97
2017-08-21T16:13:44.193Z,1.97
2017-08-21T16:16:11.682Z,1.80
2017-08-21T16:18:39.146Z,2.23
2017-08-21T16:21:06.613Z,2.23
2017-08-21T16:23:34.086Z,2.40
2017-08-21T16:26:01.566Z,2.20
2017-08-21T16:28:29.170Z,2.47
2017-08-21T16:30:56.638Z,2.40
2017-08-21T16:33:24.091Z,2.50
2017-08-21T16:35:51.579Z,2.20
2017-08-21T16:38:19.185Z,2.43
2017-08-21T16:40:46.648Z,2.90
2017-08-21T16:43:14.129Z,2.27
2017-08-21T16:45:41.616Z,2.30
2017-08-21T16:48:09.116Z,2.47
2017-08-21T16:50:36.573Z,2.37
2017-08-21T16:53:04.099Z,2.40
2017-08-21T16:55:31.545Z,2.13
2017-08-21T16:58:00.790Z,2.33
2017-08-21T17:00:28.326Z,2.90
2017-08-21T17:02:55.798Z,2.00
2017-08-21T17:05:23.277Z,2.53
2017-08-21T17:07:50.767Z,2.40
2017-08-21T17:10:18.389Z,2.53
2017-08-21T17:12:45.857Z,2.53
2017-08-21T17:15:13.338Z,2.50
2017-08-21T17:17:40.915Z,2.03
2017-08-21T17:20:08.378Z,2.13
2017-08-21T17:22:35.858Z,2.27
2017-08-21T17:25:03.339Z,2.20
2017-08-21T17:27:30.838Z,2.30
2017-08-21T17:29:58.536Z,2.70
2017-08-21T17:32:26.021Z,2.80
2017-08-21T17:34:54.038Z,2.60
2017-08-21T17:37:21.494Z,2.90
2017-08-21T17:39:49.361Z,2.60
2017-08-21T17:42:16.820Z,2.60
2017-08-21T17:44:44.333Z,2.80
2017-08-21T17:47:11.806Z,2.83
2017-08-21T17:49:39.254Z,2.30
2017-08-21T17:52:06.748Z,2.83
2017-08-21T17:54:34.205Z,3.07
2017-08-21T17:57:01.699Z,2.90
2017-08-21T17:59:29.160Z,2.97
2017-08-21T18:01:56.629Z,2.60
2017-08-21T18:04:24.209Z,2.13
2017-08-21T18:06:51.692Z,2.33
2017-08-21T18:09:19.165Z,2.77
2017-08-21T18:11:46.635Z,2.80
2017-08-21T18:14:14.205Z,3.00
2017-08-21T18:16:41.684Z,2.90
2017-08-21T18:19:09.169Z,2.60
2017-08-21T18:21:36.722Z,3.40
2017-08-21T18:24:04.257Z,2.83
2017-08-21T18:26:31.740Z,3.27
2017-08-21T18:28:59.209Z,2.93
2017-08-21T18:31:27.626Z,3.23
2017-08-21T18:33:55.090Z,3.23
2017-08-21T18:36:23.165Z,3.40
2017-08-21T18:38:50.635Z,3.33
2017-08-21T18:41:18.289Z,3.00
2017-08-21T18:43:46.073Z,3.50
2017-08-21T18:46:13.733Z,2.70
2017-08-21T18:48:41.213Z,2.63
2017-08-21T18:51:08.680Z,3.43
2017-08-21T18:53:36.159Z,2.67
2017-08-21T18:56:03.616Z,3.10
2017-08-21T18:58:31.105Z,2.87
2017-08-21T19:00:58.562Z,2.83
2017-08-21T19:03:26.068Z,2.40
2017-08-21T19:05:53.560Z,2.97
2017-08-21T19:08:21.066Z,2.43
2017-08-21T19:10:48.525Z,2.50
2017-08-21T19:13:16.008Z,2.70
2017-08-21T19:15:43.466Z,2.50
2017-08-21T19:18:10.966Z,3.63
2017-08-21T19:20:38.448Z,2.80
2017-08-21T19:23:05.927Z,2.70
2017-08-21T19:25:33.392Z,2.70
2017-08-21T19:28:00.867Z,2.47
2017-08-21T19:30:28.529Z,3.10
2017-08-21T19:32:56.004Z,2.53
2017-08-21T19:35:23.472Z,2.97
2017-08-21T19:37:50.952Z,2.50
2017-08-21T19:40:18.562Z,2.90
2017-08-21T19:42:46.033Z,2.80
2017-08-21T19:45:13.525Z,2.90
2017-08-21T19:47:41.001Z,2.73
2017-08-21T19:50:08.633Z,3.53
2017-08-21T19:52:36.105Z,3.00
2017-08-21T19:55:03.569Z,3.37
2017-08-21T19:57:31.149Z,3.80
2017-08-21T19:59:58.664Z,3.20
2017-08-21T20:02:26.140Z,3.70
2017-08-21T20:04:53.617Z,3.50
2017-08-21T20:07:21.110Z,4.20
2017-08-21T20:09:48.738Z,3.10
2017-08-21T20:12:16.222Z,3.23
2017-08-21T20:14:43.878Z,3.23
2017-08-21T20:17:11.355Z,3.50
2017-08-21T20:19:38.839Z,2.90
2017-08-21T20:22:08.250Z,2.77
2017-08-21T20:24:35.763Z,2.80
2017-08-21T20:27:03.230Z,4.27
2017-08-21T20:29:30.821Z,3.60
2017-08-21T20:31:58.298Z,3.67
2017-08-21T20:34:25.783Z,3.20
2017-08-21T20:36:53.253Z,3.27
2017-08-21T20:39:20.753Z,3.43
2017-08-21T20:41:48.260Z,3.70
2017-08-21T20:44:15.741Z,3.40
2017-08-21T20:46:43.245Z,3.50
2017-08-21T20:49:10.726Z,3.70
2017-08-21T20:51:38.235Z,3.77
2017-08-21T20:54:05.723Z,3.80
2017-08-21T20:56:33.276Z,4.47
2017-08-21T20:59:00.765Z,3.37
2017-08-21T21:01:28.276Z,3.70
2017-08-21T21:03:55.751Z,4.43
2017-08-21T21:06:23.290Z,3.60
2017-08-21T21:08:50.769Z,4.13
2017-08-21T21:11:18.269Z,3.13
2017-08-21T21:13:45.717Z,3.70
2017-08-21T21:16:13.207Z,4.20
2017-08-21T21:18:40.671Z,3.50
2017-08-21T21:21:08.154Z,3.37
2017-08-21T21:23:35.740Z,3.60
2017-08-21T21:26:03.209Z,4.13
2017-08-21T21:28:30.698Z,4.00
2017-08-21T21:30:58.162Z,4.27
2017-08-21T21:33:25.764Z,4.50
2017-08-21T21:35:53.224Z,3.80
2017-08-21T21:38:20.772Z,4.13
2017-08-21T21:40:48.233Z,4.27
2017-08-21T21:43:15.893Z,4.20
2017-08-21T21:45:43.375Z,3.73
2017-08-21T21:48:10.846Z,4.80
2017-08-21T21:50:38.337Z,4.10
2017-08-21T21:53:05.807Z,4.37
2017-08-21T21:55:33.274Z,3.90
2017-08-21T21:58:00.759Z,4.50
2017-08-21T22:00:28.262Z,4.43
2017-08-21T22:02:55.790Z,4.10
2017-08-21T22:05:23.265Z,3.70
2017-08-21T22:07:50.726Z,4.07
2017-08-21T22:10:18.192Z,4.00
2017-08-21T22:12:45.671Z,3.73
2017-08-21T22:15:13.133Z,4.30
2017-08-21T22:17:40.623Z,3.80
2017-08-21T22:20:08.102Z,3.70
2017-08-21T22:22:35.568Z,3.60
2017-08-21T22:25:03.046Z,4.27
2017-08-21T22:27:30.688Z,4.23
2017-08-21T22:29:58.158Z,4.53
2017-08-21T22:32:25.619Z,4.30
2017-08-21T22:34:53.089Z,4.60
2017-08-21T22:37:20.556Z,4.43
2017-08-21T22:39:48.040Z,4.40
2017-08-21T22:42:15.508Z,5.17
2017-08-21T22:44:42.968Z,4.50
2017-08-21T22:47:10.453Z,4.30
2017-08-21T22:49:37.931Z,4.23
2017-08-21T22:52:06.317Z,4.73
2017-08-21T22:54:33.797Z,5.33
2017-08-21T22:57:01.262Z,4.53
2017-08-21T22:59:28.729Z,4.50
2017-08-21T23:01:56.213Z,4.63
2017-08-21T23:04:23.674Z,4.60
2017-08-21T23:06:51.169Z,5.53
2017-08-21T23:09:18.629Z,4.40
2017-08-21T23:11:46.103Z,5.70
2017-08-21T23:14:13.578Z,4.63
2017-08-21T23:16:41.050Z,5.03
2017-08-21T23:19:08.505Z,5.50
2017-08-21T23:21:35.985Z,4.60
2017-08-21T23:24:03.467Z,5.17
2017-08-21T23:26:31.077Z,5.03
2017-08-21T23:28:58.545Z,5.23
2017-08-21T23:31:26.035Z,4.80
2017-08-21T23:33:53.521Z,5.10
2017-08-21T23:36:21.053Z,5.20
2017-08-21T23:38:48.525Z,5.73
2017-08-21T23:41:16.007Z,5.70
2017-08-21T23:43:43.466Z,5.73
2017-08-21T23:46:10.947Z,4.97
2017-08-21T23:48:38.413Z,4.80
2017-08-21T23:51:05.899Z,5.40
2017-08-21T23:53:33.465Z,5.40
2017-08-21T23:56:00.966Z,5.70
2017-08-21T23:58:28.442Z,4.87
